Time;durP1;ratioP1;P1;durP2;ratioP2;P2;SDS_P1;SDS_P2;PMS_P1;PMS_P2;Temp;Humidity;BMP_temperature;BMP_pressure;BME280_temperature;BME280_humidity;BME280_pressure;Samples;Min_cycle;Max_cycle;Signal;HPM_P1;HPM_P2
2022/12/01 00:01:36;;;;;;;11.05;3.37;;;;;;;0.79;52.88;102389.23;1759910;79;20896;-88
2022/12/01 00:04:03;;;;;;;8.10;3.62;;;;;;;0.79;52.70;102383.64;1763321;80;20995;-88
2022/12/01 00:06:30;;;;;;;7.12;3.20;;;;;;;0.79;52.65;102389.23;1760671;80;21166;-89
2022/12/01 00:11:43;;;;;;;8.55;3.37;;;;;;;0.78;52.55;102389.67;1773744;80;21555;-88
2022/12/01 00:14:10;;;;;;;7.65;3.27;;;;;;;0.80;52.37;102382.80;1764810;80;20939;-86
2022/12/01 00:16:39;;;;;;;7.58;3.72;;;;;;;0.80;52.41;102383.20;1765462;80;21015;-88
2022/12/01 00:19:07;;;;;;;6.62;3.22;;;;;;;0.77;52.33;102373.72;1743699;80;20853;-87
2022/12/01 00:21:36;;;;;;;6.47;3.50;;;;;;;0.75;52.27;102379.73;1740059;80;20935;-88
2022/12/01 00:24:02;;;;;;;9.93;3.80;;;;;;;0.71;52.43;102372.40;1770658;80;21600;-88
2022/12/01 00:26:29;;;;;;;8.93;3.80;;;;;;;0.70;52.35;102374.52;1772991;80;21430;-87
2022/12/01 00:28:57;;;;;;;6.35;3.30;;;;;;;0.71;52.43;102372.40;1764571;80;20873;-88
2022/12/01 00:31:24;;;;;;;7.47;3.62;;;;;;;0.70;52.44;102369.36;1742098;80;21388;-88
2022/12/01 00:33:52;;;;;;;13.05;5.87;;;;;;;0.70;52.44;102374.95;1767680;80;20975;-88
2022/12/01 00:36:20;;;;;;;8.25;3.27;;;;;;;0.75;52.58;102371.55;1760705;80;20880;-87
2022/12/01 00:38:47;;;;;;;5.42;2.85;;;;;;;0.80;52.44;102372.87;1759358;80;21034;-87
2022/12/01 00:41:15;;;;;;;7.90;4.85;;;;;;;0.81;52.24;102375.48;1747871;80;21490;-86
2022/12/01 00:43:42;;;;;;;9.43;4.55;;;;;;;0.74;52.32;102371.55;1751277;79;21358;-88
2022/12/01 00:46:09;;;;;;;10.60;4.33;;;;;;;0.73;52.32;102375.83;1757815;81;21636;-88
2022/12/01 00:48:37;;;;;;;8.50;3.40;;;;;;;0.71;52.28;102372.80;1763802;80;21026;-88
2022/12/01 00:51:04;;;;;;;10.15;3.60;;;;;;;0.69;52.16;102371.92;1763344;80;20917;-87
2022/12/01 00:53:31;;;;;;;7.80;3.20;;;;;;;0.66;52.17;102366.73;1754480;80;20872;-89
2022/12/01 00:55:58;;;;;;;8.03;3.17;;;;;;;0.64;52.29;102362.84;1753978;80;21302;-88
2022/12/01 00:58:24;;;;;;;7.67;3.40;;;;;;;0.64;52.24;102362.84;1752731;80;20979;-85
2022/12/01 01:00:58;;;;;;;5.58;2.92;;;;;;;0.66;52.11;102365.45;1744441;80;20912;-87
2022/12/01 01:03:26;;;;;;;8.80;2.87;;;;;;;0.68;52.01;102357.29;1744606;80;21058;-87
2022/12/01 01:05:53;;;;;;;9.95;2.90;;;;;;;0.67;51.88;102348.69;1758011;80;21010;-88
2022/12/01 01:08:19;;;;;;;10.15;3.12;;;;;;;0.64;52.00;102351.22;1754842;80;21756;-88
2022/12/01 01:10:47;;;;;;;5.70;2.80;;;;;;;0.64;52.04;102354.23;1745158;80;20991;-87
2022/12/01 01:13:14;;;;;;;4.08;2.87;;;;;;;0.62;51.66;102361.95;1763832;80;20987;-86
2022/12/01 01:15:40;;;;;;;6.20;3.08;;;;;;;0.57;51.95;102351.59;1760769;80;21003;-87
2022/12/01 01:18:09;;;;;;;5.75;3.22;;;;;;;0.56;51.60;102353.75;1739830;80;20975;-87
2022/12/01 01:20:36;;;;;;;7.83;2.70;;;;;;;0.52;51.70;102355.86;1731698;81;21197;-88
2022/12/01 01:23:02;;;;;;;4.12;2.87;;;;;;;0.47;51.81;102362.70;1770543;80;20916;-88
2022/12/01 01:25:31;;;;;;;6.12;2.72;;;;;;;0.47;51.66;102364.39;1771002;80;20936;-86
2022/12/01 05:13:24;;;;;;;6.92;2.35;;;;;;;-0.45;56.97;102359.88;1696606;83;20982;-88
2022/12/01 05:15:52;;;;;;;6.92;2.52;;;;;;;-0.47;56.97;102362.88;1701111;83;20919;-87
2022/12/01 05:18:21;;;;;;;9.95;2.60;;;;;;;-0.49;57.10;102364.97;1699825;83;20942;-87
2022/12/01 05:20:56;;;;;;;4.60;2.20;;;;;;;-0.49;57.21;102361.10;1702304;83;21142;-86
2022/12/01 05:23:29;;;;;;;4.70;3.08;;;;;;;-0.48;57.27;102359.84;1699975;83;21012;-88
2022/12/01 05:25:55;;;;;;;7.50;2.70;;;;;;;-0.46;57.35;102362.02;1704091;82;21474;-87
2022/12/01 05:28:23;;;;;;;6.45;2.72;;;;;;;-0.44;57.22;102367.20;1699555;82;21021;-88
2022/12/01 05:30:50;;;;;;;4.35;2.35;;;;;;;-0.45;57.25;102366.31;1701106;83;21404;-89
2022/12/01 05:33:17;;;;;;;11.33;2.85;;;;;;;-0.47;57.29;102368.04;1702128;82;21842;-89
2022/12/01 05:35:44;;;;;;;6.15;2.87;;;;;;;-0.48;57.18;102366.29;1701336;83;20942;-87
2022/12/01 05:38:12;;;;;;;6.35;3.47;;;;;;;-0.48;57.29;102370.58;1702629;83;20961;-87
2022/12/01 05:40:39;;;;;;;4.40;2.80;;;;;;;-0.48;57.28;102366.72;1701064;83;20898;-86
2022/12/01 05:43:05;;;;;;;3.15;2.00;;;;;;;-0.45;57.24;102373.19;1700792;82;20926;-87
2022/12/01 05:45:33;;;;;;;5.97;2.40;;;;;;;-0.48;57.19;102378.31;1698682;81;21265;-87
2022/12/01 05:48:00;;;;;;;7.50;2.95;;;;;;;-0.52;57.39;102376.53;1702669;83;21014;-88
2022/12/01 05:50:28;;;;;;;5.28;3.37;;;;;;;-0.58;57.43;102373.44;1698796;82;21010;-89
2022/12/01 05:52:55;;;;;;;8.60;3.02;;;;;;;-0.56;57.59;102385.92;1702640;83;21431;-87
2022/12/01 05:55:21;;;;;;;7.22;3.20;;;;;;;-0.51;57.70;102376.56;1700176;83;20977;-87
2022/12/01 05:57:48;;;;;;;3.60;2.55;;;;;;;-0.43;57.65;102383.10;1700645;83;21224;-87
2022/12/01 06:00:15;;;;;;;12.30;3.98;;;;;;;-0.40;57.54;102375.44;1701040;83;20938;-87
2022/12/01 06:02:42;;;;;;;8.25;3.17;;;;;;;-0.40;57.35;102374.54;1701254;83;20954;-88
2022/12/01 06:05:09;;;;;;;5.17;2.83;;;;;;;-0.42;57.34;102371.53;1697008;83;20950;-90
2022/12/01 06:07:38;;;;;;;10.90;3.12;;;;;;;-0.37;57.27;102381.91;1701450;83;20898;-89
2022/12/01 06:10:06;;;;;;;7.15;4.65;;;;;;;-0.35;57.11;102382.80;1703834;82;20984;-88
2022/12/01 06:12:33;;;;;;;5.65;3.08;;;;;;;-0.37;57.15;102374.17;1698883;83;21076;-88
2022/12/01 06:14:59;;;;;;;7.03;3.62;;;;;;;-0.37;57.11;102379.76;1700194;82;21428;-88
2022/12/01 06:17:26;;;;;;;7.10;3.50;;;;;;;-0.36;57.18;102373.74;1700007;83;20883;-88
2022/12/01 06:19:54;;;;;;;11.85;3.77;;;;;;;-0.34;57.10;102382.36;1700207;83;21076;-88
2022/12/01 06:22:21;;;;;;;6.30;3.42;;;;;;;-0.31;56.98;102392.30;1700402;83;21339;-87
2022/12/01 06:24:47;;;;;;;6.65;3.27;;;;;;;-0.30;56.83;102385.43;1680109;83;21385;-88
2022/12/01 06:27:14;;;;;;;6.37;3.75;;;;;;;-0.32;56.90;102382.82;1701650;82;20974;-88
2022/12/01 06:29:41;;;;;;;6.05;3.60;;;;;;;-0.30;57.29;102389.30;1702001;83;20908;-87
2022/12/01 06:32:07;;;;;;;8.98;4.00;;;;;;;-0.27;57.54;102382.48;1698463;83;21392;-89
2022/12/01 06:34:34;;;;;;;12.18;3.67;;;;;;;-0.21;57.29;102384.26;1699292;83;21140;-86
2022/12/01 06:37:00;;;;;;;11.18;4.35;;;;;;;-0.15;56.94;102379.63;1702101;82;20993;-87
2022/12/01 06:39:27;;;;;;;7.45;4.12;;;;;;;-0.18;56.91;102375.27;1703072;82;21025;-87
2022/12/01 06:41:53;;;;;;;6.20;3.37;;;;;;;-0.16;56.79;102363.69;1701010;83;20918;-87
2022/12/01 06:44:19;;;;;;;8.18;4.42;;;;;;;-0.13;56.70;102364.61;1701393;83;20938;-87
2022/12/01 06:46:46;;;;;;;10.38;4.95;;;;;;;-0.13;56.80;102362.03;1700211;83;21153;-86
2022/12/01 06:49:12;;;;;;;5.72;3.40;;;;;;;-0.07;56.66;102356.95;1702648;83;21467;-87
2022/12/01 06:51:39;;;;;;;6.50;3.25;;;;;;;-0.02;56.36;102363.02;1696705;82;20902;-87
2022/12/01 06:54:06;;;;;;;13.85;3.42;;;;;;;0.01;56.28;102353.59;1698150;83;20931;-89
2022/12/01 06:56:33;;;;;;;6.03;2.80;;;;;;;-0.01;56.12;102350.98;1700034;83;20982;-89
2022/12/01 06:58:59;;;;;;;6.03;3.15;;;;;;;-0.07;55.89;102348.33;1699274;83;21890;-87
2022/12/01 07:01:26;;;;;;;7.25;3.15;;;;;;;-0.12;56.07;102348.70;1699817;83;20879;-88
2022/12/01 07:03:52;;;;;;;11.50;5.22;;;;;;;-0.16;55.94;102343.92;1703332;83;21002;-88
2022/12/01 07:06:19;;;;;;;8.23;3.02;;;;;;;-0.21;56.07;102340.00;1700432;83;20905;-87
2022/12/01 07:08:45;;;;;;;6.08;3.33;;;;;;;-0.20;56.16;102326.71;1701191;82;20981;-87
2022/12/01 07:11:13;;;;;;;7.53;3.08;;;;;;;-0.18;55.87;102331.44;1701404;82;21419;-89
2022/12/01 07:13:41;;;;;;;6.33;2.80;;;;;;;-0.13;55.60;102329.80;1701368;83;20867;-88
2022/12/01 07:16:08;;;;;;;6.75;3.37;;;;;;;-0.09;55.33;102326.41;1704971;82;20942;-88
2022/12/01 07:18:35;;;;;;;7.28;3.17;;;;;;;-0.07;55.16;102326.41;1702214;83;20927;-87
2022/12/01 07:21:06;;;;;;;6.65;3.85;;;;;;;-0.05;55.08;102328.16;1700402;83;20965;-87
2022/12/01 07:23:34;;;;;;;9.93;3.33;;;;;;;0.01;55.01;102334.25;1700981;83;21149;-88
2022/12/01 07:26:06;;;;;;;5.42;3.10;;;;;;;0.06;54.61;102332.14;1702703;83;20937;-89
2022/12/01 07:28:35;;;;;;;9.30;4.58;;;;;;;0.10;53.85;102333.06;1702974;82;20910;-90
2022/12/01 07:31:13;;;;;;;8.93;3.75;;;;;;;0.09;53.98;102338.65;1701882;83;20997;-88
2022/12/01 07:33:40;;;;;;;5.87;3.52;;;;;;;0.09;53.77;102333.49;1699849;83;20863;-88
2022/12/01 07:36:07;;;;;;;12.07;4.12;;;;;;;0.12;53.64;102334.80;1702487;83;21838;-89
2022/12/01 07:38:34;;;;;;;9.38;4.65;;;;;;;0.15;53.34;102330.95;1700569;83;20957;-89
2022/12/01 07:41:07;;;;;;;10.20;3.77;;;;;;;0.15;53.53;102337.41;1683870;84;20978;-88
2022/12/01 07:43:35;;;;;;;5.97;3.25;;;;;;;0.16;53.49;102331.41;1702870;82;20946;-89
2022/12/01 07:46:17;;;;;;;7.55;4.30;;;;;;;0.23;53.31;102322.45;1701145;83;21033;-89
2022/12/01 07:48:45;;;;;;;10.40;4.15;;;;;;;0.30;52.82;102324.24;1704769;83;22335;-86
2022/12/01 07:51:16;;;;;;;7.03;4.03;;;;;;;0.38;52.24;102325.19;1699356;83;20930;-88
2022/12/01 07:53:44;;;;;;;9.35;4.45;;;;;;;0.43;51.97;102323.94;1700953;83;21438;-87
2022/12/01 07:56:11;;;;;;;19.65;3.85;;;;;;;0.46;51.33;102320.95;1679753;83;21040;-88
2022/12/01 07:58:40;;;;;;;9.70;3.92;;;;;;;0.51;51.20;102323.17;1703412;83;20907;-88
2022/12/01 08:01:11;;;;;;;10.90;4.30;;;;;;;0.56;50.61;102327.08;1700839;82;21146;-89
2022/12/01 08:03:39;;;;;;;11.68;3.85;;;;;;;0.59;50.37;102324.08;1702493;82;20866;-89
2022/12/01 08:06:06;;;;;;;15.48;4.00;;;;;;;0.61;49.58;102337.87;1701161;83;20933;-87
2022/12/01 08:08:35;;;;;;;14.30;4.45;;;;;;;0.64;49.77;102330.57;1700598;83;21415;-87
2022/12/01 08:11:13;;;;;;;10.10;4.10;;;;;;;0.67;49.53;102333.20;1700169;83;20993;-88
2022/12/01 08:13:40;;;;;;;13.55;4.17;;;;;;;0.75;49.43;102333.25;1699822;83;21411;-88
2022/12/01 08:16:11;;;;;;;7.37;3.80;;;;;;;0.82;49.08;102324.69;1699757;83;20990;-88
2022/12/01 08:18:39;;;;;;;7.78;3.77;;;;;;;0.92;48.84;102333.39;1699835;82;20885;-87
2022/12/01 08:21:07;;;;;;;8.25;3.67;;;;;;;0.99;48.44;102332.58;1700972;82;20946;-87
2022/12/01 08:23:33;;;;;;;12.78;4.85;;;;;;;1.08;48.50;102329.20;1699686;83;20891;-89
2022/12/01 08:26:05;;;;;;;10.30;4.90;;;;;;;1.14;47.96;102327.52;1702190;83;21142;-90
2022/12/01 08:28:34;;;;;;;10.82;4.80;;;;;;;1.20;47.56;102329.27;1699141;82;20969;-89
2022/12/01 08:31:12;;;;;;;7.67;3.83;;;;;;;1.23;47.80;102317.67;1703244;83;21070;-87
2022/12/01 08:33:39;;;;;;;11.08;4.60;;;;;;;1.35;47.43;102316.44;1701710;83;20907;-89
2022/12/01 08:36:06;;;;;;;12.95;4.72;;;;;;;1.44;47.24;102319.06;1696900;83;20926;-89
2022/12/01 08:38:33;;;;;;;10.60;4.58;;;;;;;1.52;47.05;102308.78;1698132;83;21889;-86
2022/12/01 08:41:07;;;;;;;12.82;4.15;;;;;;;1.57;46.81;102303.20;1700618;82;20895;-89
2022/12/01 08:43:38;;;;;;;8.98;3.72;;;;;;;1.69;46.66;102314.45;1702643;83;21030;-88
2022/12/01 08:46:02;;;;;;;9.08;4.50;;;;;;;1.75;46.18;102299.82;1701107;83;20966;-87
2022/12/01 08:48:29;;;;;;;12.55;3.98;;;;;;;1.81;46.28;102300.28;1701089;82;20871;-87
2022/12/01 08:51:11;;;;;;;14.07;3.52;;;;;;;1.91;46.04;102293.41;1701169;83;21783;-88
2022/12/01 08:53:42;;;;;;;11.80;4.95;;;;;;;1.98;45.56;102301.20;1661423;84;20880;-88
2022/12/01 08:56:23;;;;;;;8.25;4.33;;;;;;;2.02;45.51;102292.60;1702204;83;20914;-87
2022/12/01 08:58:50;;;;;;;8.85;3.92;;;;;;;2.08;45.61;102290.44;1702002;82;20927;-86
2022/12/01 09:01:19;;;;;;;10.98;3.95;;;;;;;2.16;45.19;102288.73;1700038;83;20918;-88
2022/12/01 09:03:45;;;;;;;10.85;3.90;;;;;;;2.20;45.19;102284.41;1703143;83;21283;-87
2022/12/01 09:06:22;;;;;;;8.58;3.85;;;;;;;2.25;45.28;102286.60;1706856;82;20985;-88
2022/12/01 09:08:47;;;;;;;10.20;4.08;;;;;;;2.32;45.32;102284.45;1704018;82;21400;-87
2022/12/01 09:11:16;;;;;;;8.78;3.85;;;;;;;2.42;45.18;102285.30;1698741;83;20993;-86
2022/12/01 09:13:44;;;;;;;6.37;3.22;;;;;;;2.51;44.78;102276.68;1699792;83;20931;-86
2022/12/01 09:16:16;;;;;;;7.45;3.20;;;;;;;2.58;44.73;102272.81;1701646;83;21149;-87
2022/12/01 09:18:44;;;;;;;13.93;4.75;;;;;;;2.67;44.91;102271.95;1701127;83;21029;-87
2022/12/01 09:21:20;;;;;;;9.28;3.30;;;;;;;2.73;44.39;102269.33;1700754;83;20892;-87
2022/12/01 09:23:47;;;;;;;7.85;3.47;;;;;;;2.75;44.26;102266.31;1700962;82;20942;-89
2022/12/01 09:26:17;;;;;;;7.25;3.10;;;;;;;2.73;44.24;102267.19;1702076;82;21002;-87
2022/12/01 09:28:45;;;;;;;5.55;3.30;;;;;;;2.69;44.32;102254.25;1673533;84;21327;-90
2022/12/01 09:31:13;;;;;;;11.35;2.92;;;;;;;2.73;44.08;102262.00;1701534;83;21017;-88
2022/12/01 09:33:39;;;;;;;6.17;3.25;;;;;;;2.76;43.83;102253.81;1700857;83;20950;-86
2022/12/01 09:36:07;;;;;;;8.83;3.20;;;;;;;2.75;43.54;102252.50;1702199;83;20978;-89
2022/12/01 09:38:35;;;;;;;11.20;3.45;;;;;;;2.77;44.03;102252.08;1698676;83;21006;-88
2022/12/01 09:41:12;;;;;;;7.08;2.90;;;;;;;2.81;43.56;102243.44;1700474;83;21223;-88
2022/12/01 09:44:04;;;;;;;10.82;2.98;;;;;;;2.68;43.84;102216.24;1673445;84;20891;-88
2022/12/01 09:46:42;;;;;;;11.43;3.70;;;;;;;2.88;43.74;102239.52;1659397;85;20853;-88
2022/12/01 09:49:21;;;;;;;6.83;3.25;;;;;;;2.98;43.06;102240.80;1696141;83;20954;-88
2022/12/01 09:51:50;;;;;;;8.35;3.15;;;;;;;3.05;43.41;102236.05;1700436;83;20938;-89
2022/12/01 09:54:16;;;;;;;7.97;4.25;;;;;;;3.10;42.83;102236.89;1702725;82;21136;-88
2022/12/01 09:56:49;;;;;;;7.10;2.70;;;;;;;3.12;43.04;102237.75;1699249;84;20859;-87
2022/12/01 09:59:25;;;;;;;8.93;3.45;;;;;;;3.18;42.66;102241.62;1699949;83;21010;-88
2022/12/01 10:02:00;;;;;;;5.95;4.10;;;;;;;3.19;42.48;102225.63;1660495;85;20991;-86
2022/12/01 10:04:39;;;;;;;14.45;3.90;;;;;;;3.20;42.02;102233.41;1697503;83;20942;-89
2022/12/01 10:07:36;;;;;;;6.70;3.35;;;;;;;3.18;41.61;102232.55;1699091;78;21533;-85
2022/12/01 10:10:35;;;;;;;6.90;3.17;;;;;;;3.12;41.47;102232.56;1704453;82;20969;-86
2022/12/01 10:13:02;;;;;;;7.58;3.42;;;;;;;3.13;41.86;102226.50;1700469;83;21124;-85
2022/12/01 10:15:46;;;;;;;7.33;3.75;;;;;;;3.25;41.97;102234.25;1699727;83;20981;-86
2022/12/01 10:18:31;;;;;;;12.20;3.55;;;;;;;3.32;41.37;102224.72;1703045;82;20949;-86
2022/12/01 10:21:32;;;;;;;11.78;4.10;;;;;;;3.34;41.28;102222.98;1703259;82;21672;-87
2022/12/01 10:24:19;;;;;;;18.30;3.62;;;;;;;3.38;41.50;102216.92;1700639;83;20930;-87
2022/12/01 10:27:41;;;;;;;9.05;3.72;;;;;;;3.50;41.79;102216.00;1695428;83;20847;-88
2022/12/01 10:30:17;;;;;;;10.08;3.20;;;;;;;3.60;41.04;102211.20;1700257;83;20958;-85
2022/12/01 10:32:57;;;;;;;6.10;4.05;;;;;;;3.61;40.84;102203.83;1697747;83;21017;-87
2022/12/01 10:35:31;;;;;;;12.43;3.47;;;;;;;3.61;40.64;102206.42;1629349;87;21133;-88
2022/12/01 10:38:01;;;;;;;9.25;3.92;;;;;;;3.58;41.03;102202.56;1697808;83;20855;-87
2022/12/01 10:40:27;;;;;;;8.53;3.83;;;;;;;3.59;41.19;102195.19;1700060;82;20938;-87
2022/12/01 10:42:54;;;;;;;9.35;3.58;;;;;;;3.60;41.36;102197.34;1699628;83;20910;-88
2022/12/01 10:45:28;;;;;;;7.60;3.27;;;;;;;3.63;41.46;102195.61;1703372;83;20897;-87
2022/12/01 10:48:14;;;;;;;8.45;2.47;;;;;;;3.66;41.32;102198.61;1690919;83;21298;-86
2022/12/01 10:50:47;;;;;;;12.93;4.42;;;;;;;3.63;41.04;102198.64;1697818;83;20906;-86
2022/12/01 10:53:31;;;;;;;8.88;3.22;;;;;;;3.60;40.97;102186.97;1703895;82;21399;-85
2022/12/01 10:56:17;;;;;;;6.45;3.02;;;;;;;3.61;41.19;102193.45;1696136;83;20970;-88
2022/12/01 10:58:51;;;;;;;9.20;3.47;;;;;;;3.60;41.14;102188.27;1702818;83;20954;-86
2022/12/01 11:01:35;;;;;;;7.03;3.20;;;;;;;3.54;41.01;102195.66;1701401;83;21240;-87
2022/12/01 11:04:07;;;;;;;;;;;;;;;3.48;40.61;102190.06;1705740;83;21037;-87
2022/12/01 11:06:34;;;;;;;11.50;3.95;;;;;;;3.46;40.99;102194.39;1701681;83;20113;-88
2022/12/01 16:15:08;;;;;;;28.75;16.67;;;;;;;1.59;39.61;102192.03;1708400;81;21118;-87
2022/12/01 16:17:42;;;;;;;11.43;5.85;;;;;;;1.59;39.24;102191.60;1684657;82;21176;-89
2022/12/01 16:20:32;;;;;;;19.62;6.22;;;;;;;1.59;39.25;102186.43;1695052;82;21042;-90
2022/12/01 16:23:04;;;;;;;15.08;8.88;;;;;;;1.57;39.20;102190.73;1704510;81;21003;-88
2022/12/01 16:25:38;;;;;;;16.67;6.47;;;;;;;1.55;39.34;102191.16;1704364;82;21094;-90
2022/12/01 16:28:06;;;;;;;17.25;6.87;;;;;;;1.53;39.25;102198.04;1697854;82;21573;-89
2022/12/01 16:30:38;;;;;;;15.28;6.72;;;;;;;1.49;39.21;102201.50;1710319;82;21806;-88
2022/12/01 16:33:18;;;;;;;17.52;6.95;;;;;;;1.47;39.25;102185.12;1688191;82;20976;-90
2022/12/01 16:35:44;;;;;;;12.50;5.22;;;;;;;1.48;39.20;102192.44;1699994;81;20986;-90
2022/12/01 16:38:22;;;;;;;11.18;4.87;;;;;;;1.46;39.29;102184.67;1703978;82;21004;-89
2022/12/01 16:40:52;;;;;;;13.65;6.60;;;;;;;1.44;39.20;102194.14;1707976;81;20927;-89
2022/12/01 16:43:22;;;;;;;12.85;7.35;;;;;;;1.42;39.23;102192.86;1691459;82;21249;-89
2022/12/01 16:45:55;;;;;;;16.70;6.60;;;;;;;1.39;39.45;102188.09;1688542;82;21028;-90
2022/12/01 16:48:19;;;;;;;16.05;6.47;;;;;;;1.36;39.40;102185.08;1678760;83;21570;-90
2022/12/01 16:50:48;;;;;;;17.87;7.05;;;;;;;1.33;39.79;102188.92;1663704;83;20973;-90
2022/12/01 16:53:15;;;;;;;17.73;6.37;;;;;;;1.30;39.74;102185.48;1674296;84;20905;-90
2022/12/01 16:55:57;;;;;;;11.10;4.87;;;;;;;1.31;39.81;102188.09;1678728;83;21204;-90
2022/12/01 16:58:23;;;;;;;13.40;5.72;;;;;;;1.32;39.84;102183.34;1691369;81;20919;-90
2022/12/01 17:00:53;;;;;;;12.35;4.58;;;;;;;1.32;39.48;102185.06;1694827;82;20986;-89
2022/12/01 17:03:23;;;;;;;13.93;5.45;;;;;;;1.32;39.40;102186.36;1702355;82;20942;-90
2022/12/01 17:05:52;;;;;;;11.75;5.45;;;;;;;1.30;39.54;102180.31;1668543;84;20925;-86
2022/12/01 17:08:19;;;;;;;10.32;4.53;;;;;;;1.28;39.64;102177.72;1666921;83;21187;-88
2022/12/01 17:10:49;;;;;;;12.60;5.00;;;;;;;1.30;39.96;102179.88;1645270;85;20975;-89
2022/12/01 17:13:15;;;;;;;8.50;4.67;;;;;;;1.29;40.01;102182.05;1704113;82;21046;-90
2022/12/01 17:15:43;;;;;;;12.03;4.53;;;;;;;1.30;39.96;102179.03;1707167;82;21018;-89
2022/12/01 17:18:10;;;;;;;9.75;4.78;;;;;;;1.29;39.90;102179.87;1703490;81;20946;-89
2022/12/01 17:20:37;;;;;;;12.73;5.35;;;;;;;1.29;39.80;102174.70;1704932;82;21240;-90
2022/12/01 17:23:05;;;;;;;17.67;9.45;;;;;;;1.27;39.90;102182.87;1676238;84;21069;-89
2022/12/01 17:25:31;;;;;;;9.53;5.28;;;;;;;1.26;40.03;102180.72;1668403;83;20925;-89
2022/12/01 17:28:00;;;;;;;9.80;5.58;;;;;;;1.30;39.86;102181.61;1666220;84;21476;-89
2022/12/01 17:30:29;;;;;;;12.70;5.75;;;;;;;1.31;39.86;102171.70;1669986;84;20993;-89
2022/12/01 17:32:57;;;;;;;11.03;5.70;;;;;;;1.32;40.00;102183.34;1711042;83;21262;-89
2022/12/01 17:35:23;;;;;;;15.85;5.83;;;;;;;1.33;39.76;102179.88;1678397;84;20923;-89
2022/12/01 17:37:51;;;;;;;10.18;5.60;;;;;;;1.36;39.67;102177.77;1704326;84;20916;-89
2022/12/01 17:40:17;;;;;;;15.40;5.62;;;;;;;1.33;39.75;102180.31;1698272;82;20948;-90
2022/12/01 17:42:45;;;;;;;10.30;5.17;;;;;;;1.31;39.74;102178.16;1699248;83;21042;-89
2022/12/01 17:45:11;;;;;;;13.15;4.45;;;;;;;1.28;39.72;102173.84;1705117;83;21193;-84
2022/12/01 17:47:37;;;;;;;14.43;5.33;;;;;;;1.29;39.70;102180.76;1700651;82;21153;-88
2022/12/01 17:50:07;;;;;;;13.90;4.65;;;;;;;1.29;39.53;102179.46;1703265;82;21022;-88
2022/12/01 17:52:35;;;;;;;15.50;5.75;;;;;;;1.27;39.73;102173.83;1700763;82;21086;-90
2022/12/01 17:55:02;;;;;;;11.93;5.40;;;;;;;1.26;39.75;102175.55;1703742;83;21335;-89
2022/12/01 17:57:29;;;;;;;10.70;4.87;;;;;;;1.27;39.73;102171.24;1706601;82;21434;-89
2022/12/01 17:59:55;;;;;;;9.33;4.87;;;;;;;1.24;39.72;102176.87;1708615;81;20978;-85
2022/12/01 18:02:24;;;;;;;14.33;6.22;;;;;;;1.23;39.68;102175.13;1693313;83;20908;-88
2022/12/01 18:04:50;;;;;;;12.43;6.58;;;;;;;1.21;39.72;102174.25;1691854;82;20948;-89
2022/12/01 18:07:17;;;;;;;8.15;4.90;;;;;;;1.20;39.83;102163.90;1701167;82;20888;-87
2022/12/01 18:09:44;;;;;;;9.90;4.87;;;;;;;1.21;39.88;102162.63;1647470;83;21090;-87
2022/12/01 18:12:12;;;;;;;13.65;5.45;;;;;;;1.19;40.00;102168.21;1668171;83;20902;-89
2022/12/01 18:14:41;;;;;;;10.30;5.12;;;;;;;1.19;39.91;102173.81;1665652;84;20930;-89
2022/12/01 18:17:07;;;;;;;8.85;4.97;;;;;;;1.19;39.85;102165.63;1659878;84;21508;-88
2022/12/01 18:19:35;;;;;;;14.47;5.83;;;;;;;1.14;39.72;102163.46;1692211;82;21035;-89
2022/12/01 18:22:02;;;;;;;12.47;5.25;;;;;;;1.10;39.75;102172.48;1683883;82;21217;-90
2022/12/01 18:24:28;;;;;;;14.20;5.05;;;;;;;1.07;40.04;102175.92;1704669;82;21512;-89
2022/12/01 18:26:55;;;;;;;12.18;4.55;;;;;;;1.03;40.05;102162.56;1714960;81;21003;-89
2022/12/01 18:29:27;;;;;;;13.58;4.65;;;;;;;1.02;40.16;102177.20;1698063;81;21068;-89
2022/12/01 18:31:55;;;;;;;14.00;5.33;;;;;;;1.02;40.16;102177.20;1699165;82;20923;-91
2022/12/01 18:34:22;;;;;;;16.65;5.55;;;;;;;1.00;40.18;102177.62;1700691;82;21166;-87
2022/12/01 18:36:49;;;;;;;31.33;6.28;;;;;;;0.97;40.26;102159.50;1687649;82;21409;-91
2022/12/01 18:39:15;;;;;;;11.38;3.90;;;;;;;0.99;40.48;102184.91;1697693;81;20954;-90
2022/12/01 18:41:43;;;;;;;9.43;5.03;;;;;;;0.98;40.44;102177.18;1701488;81;20880;-91
2022/12/01 18:44:09;;;;;;;13.55;4.40;;;;;;;0.95;40.37;102178.44;1692208;83;20888;-88
2022/12/01 18:46:36;;;;;;;23.83;6.37;;;;;;;0.94;40.29;102175.44;1707040;81;21188;-89
2022/12/01 18:49:07;;;;;;;12.63;5.45;;;;;;;0.94;40.42;102177.58;1694089;81;20968;-91
2022/12/01 18:51:36;;;;;;;11.45;5.33;;;;;;;0.95;40.37;102180.58;1702511;82;20999;-89
2022/12/01 18:54:05;;;;;;;9.63;5.30;;;;;;;0.94;40.39;102178.87;1709139;82;20964;-89
2022/12/01 18:56:34;;;;;;;13.38;5.08;;;;;;;0.95;40.49;102184.89;1706199;81;20887;-89
2022/12/01 18:59:05;;;;;;;17.02;4.97;;;;;;;0.97;40.55;102184.04;1703348;81;21452;-89
2022/12/01 19:01:36;;;;;;;8.90;4.62;;;;;;;0.97;40.60;102196.09;1707612;81;21587;-89
2022/12/01 19:04:07;;;;;;;12.53;4.70;;;;;;;0.96;40.73;102187.93;1706947;82;21093;-86
2022/12/01 19:06:35;;;;;;;12.15;4.53;;;;;;;0.95;40.89;102181.02;1704083;82;21081;-88
2022/12/01 19:09:04;;;;;;;18.17;5.50;;;;;;;0.95;41.06;102177.14;1707239;82;21014;-88
2022/12/01 19:11:32;;;;;;;13.72;5.40;;;;;;;0.98;41.11;102178.47;1691508;82;21248;-90
2022/12/01 19:13:59;;;;;;;11.35;4.97;;;;;;;1.01;41.05;102183.64;1710438;81;20946;-90
2022/12/01 23:05:13;;;;;;;5.33;3.02;;;;;;;-1.13;48.70;102197.56;1653779;85;20888;-88
2022/12/01 23:07:41;;;;;;;7.95;3.22;;;;;;;-1.14;48.75;102191.52;1653230;84;21016;-88
2022/12/01 23:10:21;;;;;;;8.10;3.12;;;;;;;-1.14;48.91;102200.96;1647691;84;20983;-88
2022/12/01 23:12:53;;;;;;;6.45;3.00;;;;;;;-1.13;49.03;102193.27;1691911;82;20950;-87
2022/12/01 23:15:37;;;;;;;5.97;2.83;;;;;;;-1.10;49.04;102192.45;1690541;83;21949;-88
2022/12/01 23:18:25;;;;;;;5.45;3.33;;;;;;;-1.10;49.03;102193.30;1687690;82;21081;-91
2022/12/01 23:20:57;;;;;;;7.28;3.02;;;;;;;-1.11;49.00;102194.16;1679748;83;20978;-88
2022/12/01 23:23:34;;;;;;;6.87;2.95;;;;;;;-1.11;49.15;102194.55;1690311;83;20951;-87
2022/12/01 23:26:03;;;;;;;5.78;2.87;;;;;;;-1.13;49.18;102184.69;1706837;81;20860;-90
2022/12/01 23:28:29;;;;;;;8.48;3.45;;;;;;;-1.15;49.36;102182.52;1698469;82;21136;-88
2022/12/01 23:30:57;;;;;;;8.00;3.30;;;;;;;-1.14;49.56;102181.66;1704003;81;21121;-87
2022/12/01 23:33:28;;;;;;;7.65;3.00;;;;;;;-1.15;49.52;102194.95;1705464;83;21046;-88
2022/12/01 23:36:09;;;;;;;5.33;3.37;;;;;;;-1.13;49.31;102185.55;1694469;82;20935;-87
2022/12/01 23:38:38;;;;;;;7.10;3.67;;;;;;;-1.13;49.33;102191.12;1698520;81;21116;-89
2022/12/01 23:42:45;;;;;;;8.30;3.42;;;;;;;-1.09;49.39;102179.60;1855768;77;22299;-88
2022/12/01 23:45:22;;;;;;;7.30;3.67;;;;;;;-1.10;49.33;102191.16;1821005;78;20955;-88
2022/12/01 23:47:49;;;;;;;10.78;3.85;;;;;;;-1.08;49.33;102183.89;1815789;79;21136;-88
2022/12/01 23:50:20;;;;;;;8.85;4.42;;;;;;;-1.08;49.49;102188.19;1815564;79;20868;-88
2022/12/01 23:52:46;;;;;;;6.22;3.45;;;;;;;-1.04;49.35;102184.81;1810684;79;20883;-87
2022/12/01 23:55:27;;;;;;;14.80;3.90;;;;;;;-0.99;49.40;102181.01;1815557;79;20857;-88
2022/12/01 23:57:54;;;;;;;8.03;4.30;;;;;;;-0.98;49.35;102182.72;1815604;79;20987;-86
